sensor_id;sensor_type;location;lat;lon;timestamp;P1;durP1;ratioP1;P2;durP2;ratioP2
29430;SDS011;16404;49.902;10.074;2023-07-20T00:01:35;7.22;;;3.78;;
29430;SDS011;16404;49.902;10.074;2023-07-20T00:04:21;6.75;;;3.80;;
29430;SDS011;16404;49.902;10.074;2023-07-20T00:07:06;8.30;;;4.00;;
29430;SDS011;16404;49.902;10.074;2023-07-20T00:09:50;11.10;;;4.53;;
29430;SDS011;16404;49.902;10.074;2023-07-20T00:12:35;7.45;;;3.90;;
29430;SDS011;16404;49.902;10.074;2023-07-20T00:15:20;11.13;;;4.43;;
29430;SDS011;16404;49.902;10.074;2023-07-20T00:18:04;8.38;;;3.88;;
29430;SDS011;16404;49.902;10.074;2023-07-20T00:20:49;8.60;;;4.00;;
29430;SDS011;16404;49.902;10.074;2023-07-20T00:23:34;11.75;;;4.35;;
29430;SDS011;16404;49.902;10.074;2023-07-20T00:26:19;6.57;;;4.35;;
29430;SDS011;16404;49.902;10.074;2023-07-20T00:29:04;7.33;;;3.63;;
29430;SDS011;16404;49.902;10.074;2023-07-20T00:31:48;16.17;;;4.70;;
29430;SDS011;16404;49.902;10.074;2023-07-20T00:34:33;7.93;;;4.00;;
29430;SDS011;16404;49.902;10.074;2023-07-20T00:37:18;10.68;;;4.57;;
29430;SDS011;16404;49.902;10.074;2023-07-20T00:40:02;5.35;;;3.83;;
29430;SDS011;16404;49.902;10.074;2023-07-20T00:42:48;6.47;;;3.95;;
29430;SDS011;16404;49.902;10.074;2023-07-20T00:45:39;10.75;;;4.10;;
29430;SDS011;16404;49.902;10.074;2023-07-20T00:48:23;8.98;;;3.70;;
29430;SDS011;16404;49.902;10.074;2023-07-20T00:51:08;7.85;;;3.95;;
29430;SDS011;16404;49.902;10.074;2023-07-20T00:53:53;9.20;;;3.88;;
29430;SDS011;16404;49.902;10.074;2023-07-20T00:56:38;10.82;;;4.00;;
29430;SDS011;16404;49.902;10.074;2023-07-20T01:02:07;10.00;;;4.18;;
29430;SDS011;16404;49.902;10.074;2023-07-20T01:04:53;7.20;;;4.20;;
29430;SDS011;16404;49.902;10.074;2023-07-20T01:07:58;8.55;;;4.75;;
29430;SDS011;16404;49.902;10.074;2023-07-20T01:10:56;12.57;;;4.05;;
29430;SDS011;16404;49.902;10.074;2023-07-20T01:13:46;13.00;;;4.90;;
29430;SDS011;16404;49.902;10.074;2023-07-20T01:16:31;10.43;;;3.83;;
29430;SDS011;16404;49.902;10.074;2023-07-20T01:19:16;6.97;;;3.80;;
29430;SDS011;16404;49.902;10.074;2023-07-20T01:33:57;8.13;;;3.78;;
29430;SDS011;16404;49.902;10.074;2023-07-20T01:36:44;9.63;;;3.80;;
29430;SDS011;16404;49.902;10.074;2023-07-20T01:39:30;9.80;;;4.43;;
29430;SDS011;16404;49.902;10.074;2023-07-20T01:42:17;16.40;;;4.47;;
29430;SDS011;16404;49.902;10.074;2023-07-20T01:45:01;6.82;;;3.90;;
29430;SDS011;16404;49.902;10.074;2023-07-20T01:47:46;12.73;;;4.50;;
29430;SDS011;16404;49.902;10.074;2023-07-20T01:50:31;15.20;;;4.63;;
29430;SDS011;16404;49.902;10.074;2023-07-20T01:53:17;9.05;;;4.80;;
29430;SDS011;16404;49.902;10.074;2023-07-20T01:56:02;12.20;;;3.58;;
29430;SDS011;16404;49.902;10.074;2023-07-20T01:58:47;5.88;;;3.88;;
29430;SDS011;16404;49.902;10.074;2023-07-20T02:01:31;6.00;;;3.55;;
29430;SDS011;16404;49.902;10.074;2023-07-20T02:04:16;9.82;;;3.83;;
29430;SDS011;16404;49.902;10.074;2023-07-20T02:07:00;8.87;;;3.30;;
29430;SDS011;16404;49.902;10.074;2023-07-20T02:09:45;9.50;;;4.00;;
29430;SDS011;16404;49.902;10.074;2023-07-20T02:12:30;13.13;;;4.40;;
29430;SDS011;16404;49.902;10.074;2023-07-20T02:15:14;8.93;;;4.10;;
29430;SDS011;16404;49.902;10.074;2023-07-20T02:18:00;10.80;;;4.25;;
29430;SDS011;16404;49.902;10.074;2023-07-20T02:20:45;8.77;;;4.22;;
29430;SDS011;16404;49.902;10.074;2023-07-20T02:23:29;12.60;;;3.53;;
29430;SDS011;16404;49.902;10.074;2023-07-20T02:26:14;6.93;;;3.88;;
29430;SDS011;16404;49.902;10.074;2023-07-20T02:28:58;8.52;;;3.67;;
29430;SDS011;16404;49.902;10.074;2023-07-20T02:31:43;9.88;;;3.67;;
29430;SDS011;16404;49.902;10.074;2023-07-20T02:34:28;7.55;;;3.20;;
29430;SDS011;16404;49.902;10.074;2023-07-20T02:37:12;7.05;;;3.22;;
29430;SDS011;16404;49.902;10.074;2023-07-20T02:39:57;6.25;;;3.30;;
29430;SDS011;16404;49.902;10.074;2023-07-20T02:42:42;7.35;;;3.58;;
29430;SDS011;16404;49.902;10.074;2023-07-20T02:45:26;6.25;;;3.25;;
29430;SDS011;16404;49.902;10.074;2023-07-20T02:48:11;9.80;;;3.40;;
29430;SDS011;16404;49.902;10.074;2023-07-20T02:50:55;8.25;;;3.20;;
29430;SDS011;16404;49.902;10.074;2023-07-20T02:53:40;5.72;;;2.88;;
29430;SDS011;16404;49.902;10.074;2023-07-20T02:56:25;4.93;;;3.10;;
29430;SDS011;16404;49.902;10.074;2023-07-20T02:59:10;8.38;;;3.08;;
29430;SDS011;16404;49.902;10.074;2023-07-20T03:01:54;9.03;;;2.90;;
29430;SDS011;16404;49.902;10.074;2023-07-20T03:07:23;4.63;;;3.10;;
29430;SDS011;16404;49.902;10.074;2023-07-20T03:10:10;5.25;;;3.15;;
29430;SDS011;16404;49.902;10.074;2023-07-20T03:12:55;5.60;;;2.95;;
29430;SDS011;16404;49.902;10.074;2023-07-20T03:15:39;6.35;;;3.15;;
29430;SDS011;16404;49.902;10.074;2023-07-20T03:18:24;6.15;;;3.13;;
29430;SDS011;16404;49.902;10.074;2023-07-20T03:21:09;5.93;;;3.42;;
29430;SDS011;16404;49.902;10.074;2023-07-20T03:23:58;7.00;;;3.17;;
29430;SDS011;16404;49.902;10.074;2023-07-20T03:26:42;7.13;;;3.58;;
29430;SDS011;16404;49.902;10.074;2023-07-20T03:29:27;5.75;;;3.47;;
29430;SDS011;16404;49.902;10.074;2023-07-20T03:32:11;5.80;;;3.30;;
29430;SDS011;16404;49.902;10.074;2023-07-20T03:34:56;4.82;;;3.50;;
29430;SDS011;16404;49.902;10.074;2023-07-20T03:37:41;5.20;;;3.17;;
29430;SDS011;16404;49.902;10.074;2023-07-20T03:40:25;4.72;;;3.22;;
29430;SDS011;16404;49.902;10.074;2023-07-20T03:43:10;6.07;;;3.85;;
29430;SDS011;16404;49.902;10.074;2023-07-20T03:45:54;6.72;;;3.90;;
29430;SDS011;16404;49.902;10.074;2023-07-20T03:48:40;5.35;;;3.60;;
29430;SDS011;16404;49.902;10.074;2023-07-20T03:51:25;4.47;;;3.50;;
29430;SDS011;16404;49.902;10.074;2023-07-20T03:54:10;10.40;;;4.13;;
29430;SDS011;16404;49.902;10.074;2023-07-20T03:56:54;5.45;;;3.65;;
29430;SDS011;16404;49.902;10.074;2023-07-20T03:59:39;7.28;;;4.00;;
29430;SDS011;16404;49.902;10.074;2023-07-20T04:02:28;10.68;;;4.32;;
29430;SDS011;16404;49.902;10.074;2023-07-20T04:05:13;10.85;;;4.68;;
29430;SDS011;16404;49.902;10.074;2023-07-20T04:07:58;7.00;;;4.13;;
29430;SDS011;16404;49.902;10.074;2023-07-20T04:10:43;8.57;;;3.67;;
29430;SDS011;16404;49.902;10.074;2023-07-20T04:13:28;7.57;;;4.32;;
29430;SDS011;16404;49.902;10.074;2023-07-20T04:16:16;6.57;;;3.88;;
29430;SDS011;16404;49.902;10.074;2023-07-20T04:19:01;11.38;;;4.10;;
29430;SDS011;16404;49.902;10.074;2023-07-20T04:21:46;10.43;;;4.43;;
29430;SDS011;16404;49.902;10.074;2023-07-20T04:24:30;7.95;;;4.38;;
29430;SDS011;16404;49.902;10.074;2023-07-20T04:27:15;10.18;;;4.38;;
29430;SDS011;16404;49.902;10.074;2023-07-20T04:29:59;12.57;;;4.78;;
29430;SDS011;16404;49.902;10.074;2023-07-20T04:32:44;15.60;;;4.60;;
29430;SDS011;16404;49.902;10.074;2023-07-20T04:38:51;5.40;;;4.38;;
29430;SDS011;16404;49.902;10.074;2023-07-20T04:41:37;11.95;;;4.32;;
29430;SDS011;16404;49.902;10.074;2023-07-20T04:44:22;8.80;;;4.40;;
29430;SDS011;16404;49.902;10.074;2023-07-20T04:47:06;8.88;;;4.18;;
29430;SDS011;16404;49.902;10.074;2023-07-20T04:49:55;10.60;;;3.67;;
29430;SDS011;16404;49.902;10.074;2023-07-20T04:52:39;9.52;;;3.78;;
29430;SDS011;16404;49.902;10.074;2023-07-20T04:55:24;6.22;;;3.78;;
29430;SDS011;16404;49.902;10.074;2023-07-20T04:58:10;11.02;;;3.80;;
29430;SDS011;16404;49.902;10.074;2023-07-20T05:00:55;7.93;;;3.70;;
29430;SDS011;16404;49.902;10.074;2023-07-20T05:03:40;8.48;;;3.47;;
29430;SDS011;16404;49.902;10.074;2023-07-20T05:06:26;6.40;;;3.30;;
29430;SDS011;16404;49.902;10.074;2023-07-20T05:09:11;4.43;;;2.88;;
29430;SDS011;16404;49.902;10.074;2023-07-20T05:11:56;10.35;;;3.33;;
29430;SDS011;16404;49.902;10.074;2023-07-20T05:14:40;7.63;;;3.00;;
29430;SDS011;16404;49.902;10.074;2023-07-20T05:17:26;5.75;;;3.25;;
29430;SDS011;16404;49.902;10.074;2023-07-20T05:20:10;8.73;;;3.40;;
29430;SDS011;16404;49.902;10.074;2023-07-20T05:22:56;6.43;;;2.80;;
29430;SDS011;16404;49.902;10.074;2023-07-20T05:25:40;7.97;;;2.90;;
29430;SDS011;16404;49.902;10.074;2023-07-20T05:28:25;5.18;;;2.65;;
29430;SDS011;16404;49.902;10.074;2023-07-20T05:33:55;7.53;;;3.03;;
29430;SDS011;16404;49.902;10.074;2023-07-20T05:36:39;8.05;;;2.97;;
29430;SDS011;16404;49.902;10.074;2023-07-20T05:39:24;7.22;;;3.00;;
29430;SDS011;16404;49.902;10.074;2023-07-20T05:42:08;8.93;;;3.27;;
29430;SDS011;16404;49.902;10.074;2023-07-20T05:44:53;12.20;;;3.17;;
29430;SDS011;16404;49.902;10.074;2023-07-20T05:47:39;11.93;;;2.70;;
29430;SDS011;16404;49.902;10.074;2023-07-20T05:50:23;14.07;;;3.10;;
29430;SDS011;16404;49.902;10.074;2023-07-20T05:53:08;5.60;;;2.45;;
29430;SDS011;16404;49.902;10.074;2023-07-20T05:55:55;6.72;;;2.63;;
29430;SDS011;16404;49.902;10.074;2023-07-20T05:58:40;5.25;;;2.50;;
29430;SDS011;16404;49.902;10.074;2023-07-20T06:01:24;7.05;;;2.50;;
29430;SDS011;16404;49.902;10.074;2023-07-20T06:04:11;8.10;;;3.00;;
29430;SDS011;16404;49.902;10.074;2023-07-20T06:06:55;9.20;;;3.00;;
29430;SDS011;16404;49.902;10.074;2023-07-20T06:09:40;4.03;;;2.10;;
29430;SDS011;16404;49.902;10.074;2023-07-20T06:12:24;5.97;;;2.58;;
29430;SDS011;16404;49.902;10.074;2023-07-20T06:15:25;5.57;;;2.67;;
29430;SDS011;16404;49.902;10.074;2023-07-20T06:18:11;4.40;;;2.60;;
29430;SDS011;16404;49.902;10.074;2023-07-20T06:20:55;6.63;;;2.58;;
29430;SDS011;16404;49.902;10.074;2023-07-20T06:23:40;5.22;;;2.40;;
29430;SDS011;16404;49.902;10.074;2023-07-20T06:29:13;5.93;;;2.50;;
29430;SDS011;16404;49.902;10.074;2023-07-20T06:31:58;6.57;;;2.90;;
29430;SDS011;16404;49.902;10.074;2023-07-20T06:34:42;9.27;;;2.63;;
29430;SDS011;16404;49.902;10.074;2023-07-20T06:37:27;5.65;;;2.47;;
29430;SDS011;16404;49.902;10.074;2023-07-20T06:40:11;3.67;;;2.15;;
29430;SDS011;16404;49.902;10.074;2023-07-20T06:42:56;8.50;;;2.50;;
29430;SDS011;16404;49.902;10.074;2023-07-20T06:45:42;6.70;;;2.30;;
29430;SDS011;16404;49.902;10.074;2023-07-20T06:48:26;7.00;;;2.90;;
29430;SDS011;16404;49.902;10.074;2023-07-20T06:51:11;6.50;;;2.58;;
29430;SDS011;16404;49.902;10.074;2023-07-20T06:53:56;8.10;;;2.60;;
29430;SDS011;16404;49.902;10.074;2023-07-20T06:56:40;5.70;;;2.40;;
29430;SDS011;16404;49.902;10.074;2023-07-20T06:59:25;6.55;;;2.42;;
29430;SDS011;16404;49.902;10.074;2023-07-20T07:02:09;4.60;;;2.42;;
29430;SDS011;16404;49.902;10.074;2023-07-20T07:04:54;6.43;;;2.40;;
29430;SDS011;16404;49.902;10.074;2023-07-20T07:07:39;4.72;;;2.05;;
29430;SDS011;16404;49.902;10.074;2023-07-20T07:10:23;6.38;;;2.28;;
29430;SDS011;16404;49.902;10.074;2023-07-20T07:13:08;5.72;;;2.58;;
29430;SDS011;16404;49.902;10.074;2023-07-20T07:15:52;4.47;;;2.20;;
29430;SDS011;16404;49.902;10.074;2023-07-20T07:18:37;7.97;;;2.40;;
29430;SDS011;16404;49.902;10.074;2023-07-20T07:21:23;6.43;;;2.30;;
29430;SDS011;16404;49.902;10.074;2023-07-20T07:24:09;7.38;;;2.40;;
29430;SDS011;16404;49.902;10.074;2023-07-20T07:26:54;8.57;;;2.45;;
29430;SDS011;16404;49.902;10.074;2023-07-20T07:29:38;7.78;;;2.65;;
29430;SDS011;16404;49.902;10.074;2023-07-20T07:32:23;6.45;;;2.53;;
29430;SDS011;16404;49.902;10.074;2023-07-20T07:35:08;7.07;;;2.50;;
29430;SDS011;16404;49.902;10.074;2023-07-20T07:37:52;7.13;;;2.50;;
29430;SDS011;16404;49.902;10.074;2023-07-20T07:40:37;4.97;;;2.40;;
29430;SDS011;16404;49.902;10.074;2023-07-20T07:43:21;4.65;;;2.42;;
29430;SDS011;16404;49.902;10.074;2023-07-20T07:46:09;6.50;;;2.33;;
29430;SDS011;16404;49.902;10.074;2023-07-20T07:48:53;6.88;;;2.35;;
29430;SDS011;16404;49.902;10.074;2023-07-20T07:51:38;8.57;;;2.30;;
29430;SDS011;16404;49.902;10.074;2023-07-20T07:54:22;6.65;;;2.38;;
29430;SDS011;16404;49.902;10.074;2023-07-20T07:57:07;7.30;;;2.42;;
29430;SDS011;16404;49.902;10.074;2023-07-20T07:59:52;5.68;;;2.90;;
29430;SDS011;16404;49.902;10.074;2023-07-20T08:02:36;7.45;;;2.42;;
29430;SDS011;16404;49.902;10.074;2023-07-20T08:05:21;9.48;;;2.70;;
29430;SDS011;16404;49.902;10.074;2023-07-20T08:08:05;4.65;;;2.25;;
29430;SDS011;16404;49.902;10.074;2023-07-20T08:10:52;5.68;;;2.60;;
29430;SDS011;16404;49.902;10.074;2023-07-20T08:13:37;4.03;;;2.50;;
29430;SDS011;16404;49.902;10.074;2023-07-20T08:16:22;5.70;;;2.38;;
29430;SDS011;16404;49.902;10.074;2023-07-20T08:19:06;6.05;;;2.10;;
29430;SDS011;16404;49.902;10.074;2023-07-20T08:21:51;5.07;;;2.53;;
29430;SDS011;16404;49.902;10.074;2023-07-20T08:24:39;3.85;;;2.30;;
29430;SDS011;16404;49.902;10.074;2023-07-20T08:27:24;3.65;;;2.40;;
29430;SDS011;16404;49.902;10.074;2023-07-20T08:30:09;7.05;;;2.08;;
29430;SDS011;16404;49.902;10.074;2023-07-20T08:32:54;4.85;;;2.20;;
29430;SDS011;16404;49.902;10.074;2023-07-20T08:35:38;4.03;;;1.85;;
29430;SDS011;16404;49.902;10.074;2023-07-20T08:38:23;3.42;;;2.40;;
29430;SDS011;16404;49.902;10.074;2023-07-20T08:41:08;4.55;;;2.15;;
29430;SDS011;16404;49.902;10.074;2023-07-20T08:43:53;6.45;;;2.10;;
29430;SDS011;16404;49.902;10.074;2023-07-20T08:46:41;11.10;;;2.25;;
29430;SDS011;16404;49.902;10.074;2023-07-20T08:49:27;4.45;;;2.00;;
29430;SDS011;16404;49.902;10.074;2023-07-20T08:52:12;5.55;;;1.90;;
29430;SDS011;16404;49.902;10.074;2023-07-20T08:54:57;5.03;;;2.03;;
29430;SDS011;16404;49.902;10.074;2023-07-20T08:57:41;3.20;;;1.58;;
29430;SDS011;16404;49.902;10.074;2023-07-20T09:00:29;5.78;;;2.33;;
29430;SDS011;16404;49.902;10.074;2023-07-20T09:03:14;6.80;;;2.10;;
29430;SDS011;16404;49.902;10.074;2023-07-20T09:05:59;4.18;;;1.83;;
29430;SDS011;16404;49.902;10.074;2023-07-20T09:08:43;6.15;;;2.10;;
29430;SDS011;16404;49.902;10.074;2023-07-20T09:11:28;4.18;;;1.70;;
29430;SDS011;16404;49.902;10.074;2023-07-20T09:14:13;2.03;;;1.42;;
29430;SDS011;16404;49.902;10.074;2023-07-20T09:16:57;4.43;;;1.67;;
29430;SDS011;16404;49.902;10.074;2023-07-20T09:19:45;5.03;;;1.60;;
29430;SDS011;16404;49.902;10.074;2023-07-20T09:22:30;2.55;;;1.48;;
29430;SDS011;16404;49.902;10.074;2023-07-20T09:25:16;3.83;;;1.60;;
29430;SDS011;16404;49.902;10.074;2023-07-20T09:28:02;2.97;;;1.30;;
29430;SDS011;16404;49.902;10.074;2023-07-20T09:30:48;3.97;;;1.70;;
29430;SDS011;16404;49.902;10.074;2023-07-20T09:33:32;2.17;;;1.55;;
29430;SDS011;16404;49.902;10.074;2023-07-20T09:36:17;4.18;;;1.75;;
29430;SDS011;16404;49.902;10.074;2023-07-20T09:39:05;4.10;;;2.05;;
29430;SDS011;16404;49.902;10.074;2023-07-20T09:41:50;5.63;;;1.92;;
29430;SDS011;16404;49.902;10.074;2023-07-20T09:44:36;4.00;;;1.60;;
29430;SDS011;16404;49.902;10.074;2023-07-20T09:47:24;3.53;;;1.65;;
29430;SDS011;16404;49.902;10.074;2023-07-20T09:50:09;3.85;;;2.15;;
29430;SDS011;16404;49.902;10.074;2023-07-20T09:52:56;3.35;;;1.40;;
29430;SDS011;16404;49.902;10.074;2023-07-20T09:55:43;4.50;;;1.50;;
29430;SDS011;16404;49.902;10.074;2023-07-20T09:58:28;3.35;;;1.42;;
29430;SDS011;16404;49.902;10.074;2023-07-20T10:01:17;4.53;;;1.50;;
29430;SDS011;16404;49.902;10.074;2023-07-20T10:04:04;3.30;;;1.50;;
29430;SDS011;16404;49.902;10.074;2023-07-20T10:06:50;3.13;;;1.70;;
29430;SDS011;16404;49.902;10.074;2023-07-20T10:09:39;5.90;;;2.00;;
29430;SDS011;16404;49.902;10.074;2023-07-20T10:12:25;5.30;;;1.60;;
29430;SDS011;16404;49.902;10.074;2023-07-20T10:15:12;4.65;;;1.60;;
29430;SDS011;16404;49.902;10.074;2023-07-20T10:18:14;4.13;;;1.50;;
29430;SDS011;16404;49.902;10.074;2023-07-20T10:21:33;3.42;;;1.40;;
29430;SDS011;16404;49.902;10.074;2023-07-20T10:24:21;1.73;;;1.33;;
29430;SDS011;16404;49.902;10.074;2023-07-20T10:27:06;2.97;;;1.88;;
29430;SDS011;16404;49.902;10.074;2023-07-20T10:29:51;3.05;;;1.60;;
29430;SDS011;16404;49.902;10.074;2023-07-20T10:32:40;1.80;;;1.45;;
29430;SDS011;16404;49.902;10.074;2023-07-20T10:35:26;2.17;;;1.67;;
29430;SDS011;16404;49.902;10.074;2023-07-20T10:38:11;3.85;;;1.85;;
29430;SDS011;16404;49.902;10.074;2023-07-20T10:40:55;6.68;;;1.88;;
29430;SDS011;16404;49.902;10.074;2023-07-20T10:43:42;3.50;;;1.50;;
29430;SDS011;16404;49.902;10.074;2023-07-20T10:49:24;3.88;;;1.60;;
29430;SDS011;16404;49.902;10.074;2023-07-20T10:52:10;3.08;;;1.58;;
29430;SDS011;16404;49.902;10.074;2023-07-20T10:54:55;3.60;;;1.40;;
29430;SDS011;16404;49.902;10.074;2023-07-20T10:57:39;2.60;;;1.45;;
29430;SDS011;16404;49.902;10.074;2023-07-20T11:00:24;5.90;;;1.70;;
29430;SDS011;16404;49.902;10.074;2023-07-20T11:03:08;3.25;;;1.60;;
29430;SDS011;16404;49.902;10.074;2023-07-20T11:05:53;3.35;;;1.75;;
29430;SDS011;16404;49.902;10.074;2023-07-20T11:08:42;3.95;;;1.30;;
29430;SDS011;16404;49.902;10.074;2023-07-20T11:11:28;2.67;;;1.30;;
29430;SDS011;16404;49.902;10.074;2023-07-20T11:14:21;2.75;;;1.20;;
29430;SDS011;16404;49.902;10.074;2023-07-20T11:17:13;2.97;;;1.30;;
29430;SDS011;16404;49.902;10.074;2023-07-20T11:19:59;2.60;;;1.52;;
29430;SDS011;16404;49.902;10.074;2023-07-20T11:22:45;7.85;;;1.60;;
29430;SDS011;16404;49.902;10.074;2023-07-20T11:25:36;1.50;;;1.30;;
29430;SDS011;16404;49.902;10.074;2023-07-20T11:28:23;2.80;;;1.40;;
29430;SDS011;16404;49.902;10.074;2023-07-20T11:31:08;1.70;;;1.48;;
29430;SDS011;16404;49.902;10.074;2023-07-20T11:33:53;2.85;;;1.23;;
29430;SDS011;16404;49.902;10.074;2023-07-20T11:36:38;3.33;;;1.35;;
29430;SDS011;16404;49.902;10.074;2023-07-20T11:39:25;2.30;;;1.25;;
29430;SDS011;16404;49.902;10.074;2023-07-20T11:42:10;5.28;;;1.48;;
29430;SDS011;16404;49.902;10.074;2023-07-20T11:44:55;3.78;;;1.42;;
29430;SDS011;16404;49.902;10.074;2023-07-20T11:47:41;3.05;;;1.40;;
29430;SDS011;16404;49.902;10.074;2023-07-20T11:50:28;5.13;;;1.50;;
29430;SDS011;16404;49.902;10.074;2023-07-20T11:53:12;2.00;;;1.17;;
29430;SDS011;16404;49.902;10.074;2023-07-20T11:55:57;3.00;;;1.40;;
29430;SDS011;16404;49.902;10.074;2023-07-20T11:58:43;2.55;;;1.40;;
29430;SDS011;16404;49.902;10.074;2023-07-20T12:01:29;3.80;;;1.42;;
29430;SDS011;16404;49.902;10.074;2023-07-20T12:04:18;1.88;;;1.40;;
29430;SDS011;16404;49.902;10.074;2023-07-20T12:07:07;1.92;;;1.52;;
29430;SDS011;16404;49.902;10.074;2023-07-20T12:10:07;2.38;;;1.38;;
29430;SDS011;16404;49.902;10.074;2023-07-20T12:12:53;3.88;;;1.35;;
29430;SDS011;16404;49.902;10.074;2023-07-20T12:15:38;4.00;;;1.60;;
29430;SDS011;16404;49.902;10.074;2023-07-20T12:18:23;2.38;;;1.60;;
29430;SDS011;16404;49.902;10.074;2023-07-20T12:21:17;2.78;;;1.48;;
29430;SDS011;16404;49.902;10.074;2023-07-20T12:24:03;3.50;;;1.30;;
29430;SDS011;16404;49.902;10.074;2023-07-20T12:26:48;1.42;;;1.13;;
29430;SDS011;16404;49.902;10.074;2023-07-20T12:29:40;2.10;;;1.30;;
29430;SDS011;16404;49.902;10.074;2023-07-20T12:32:25;2.40;;;1.08;;
29430;SDS011;16404;49.902;10.074;2023-07-20T12:35:09;2.85;;;1.70;;
29430;SDS011;16404;49.902;10.074;2023-07-20T12:37:55;1.17;;;1.08;;
29430;SDS011;16404;49.902;10.074;2023-07-20T12:40:40;3.53;;;1.40;;
29430;SDS011;16404;49.902;10.074;2023-07-20T12:43:24;1.70;;;1.15;;
29430;SDS011;16404;49.902;10.074;2023-07-20T12:46:09;3.05;;;1.35;;
29430;SDS011;16404;49.902;10.074;2023-07-20T12:48:58;5.07;;;1.13;;
29430;SDS011;16404;49.902;10.074;2023-07-20T12:51:42;1.85;;;1.00;;
29430;SDS011;16404;49.902;10.074;2023-07-20T12:54:27;3.13;;;1.33;;
29430;SDS011;16404;49.902;10.074;2023-07-20T12:57:11;3.30;;;1.38;;
29430;SDS011;16404;49.902;10.074;2023-07-20T12:59:56;2.67;;;1.20;;
29430;SDS011;16404;49.902;10.074;2023-07-20T13:02:41;1.25;;;1.13;;
29430;SDS011;16404;49.902;10.074;2023-07-20T13:05:26;2.30;;;1.15;;
29430;SDS011;16404;49.902;10.074;2023-07-20T13:08:11;1.60;;;1.20;;
29430;SDS011;16404;49.902;10.074;2023-07-20T13:10:55;3.13;;;1.20;;
29430;SDS011;16404;49.902;10.074;2023-07-20T13:13:40;2.58;;;0.93;;
29430;SDS011;16404;49.902;10.074;2023-07-20T13:16:24;3.25;;;1.10;;
29430;SDS011;16404;49.902;10.074;2023-07-20T13:19:10;1.55;;;1.02;;
29430;SDS011;16404;49.902;10.074;2023-07-20T13:21:54;1.20;;;1.10;;
29430;SDS011;16404;49.902;10.074;2023-07-20T13:24:39;2.42;;;1.15;;
29430;SDS011;16404;49.902;10.074;2023-07-20T13:27:23;2.72;;;1.15;;
29430;SDS011;16404;49.902;10.074;2023-07-20T13:30:09;2.53;;;1.42;;
29430;SDS011;16404;49.902;10.074;2023-07-20T13:33:00;1.55;;;1.10;;
29430;SDS011;16404;49.902;10.074;2023-07-20T13:35:45;1.83;;;1.30;;
29430;SDS011;16404;49.902;10.074;2023-07-20T13:38:29;2.17;;;1.30;;
29430;SDS011;16404;49.902;10.074;2023-07-20T13:41:14;1.63;;;1.15;;
29430;SDS011;16404;49.902;10.074;2023-07-20T13:44:00;1.73;;;1.20;;
29430;SDS011;16404;49.902;10.074;2023-07-20T13:46:44;2.28;;;1.20;;
29430;SDS011;16404;49.902;10.074;2023-07-20T13:49:29;2.38;;;1.20;;
29430;SDS011;16404;49.902;10.074;2023-07-20T13:52:13;1.27;;;1.00;;
29430;SDS011;16404;49.902;10.074;2023-07-20T13:57:42;4.10;;;1.10;;
29430;SDS011;16404;49.902;10.074;2023-07-20T14:00:27;2.65;;;1.45;;
29430;SDS011;16404;49.902;10.074;2023-07-20T14:03:16;2.80;;;1.30;;
29430;SDS011;16404;49.902;10.074;2023-07-20T14:06:01;2.22;;;1.17;;
29430;SDS011;16404;49.902;10.074;2023-07-20T14:08:45;3.25;;;1.13;;
29430;SDS011;16404;49.902;10.074;2023-07-20T14:11:31;1.60;;;1.27;;
29430;SDS011;16404;49.902;10.074;2023-07-20T14:14:15;1.33;;;1.23;;
29430;SDS011;16404;49.902;10.074;2023-07-20T14:17:00;1.80;;;1.30;;
29430;SDS011;16404;49.902;10.074;2023-07-20T14:19:44;3.10;;;1.27;;
29430;SDS011;16404;49.902;10.074;2023-07-20T14:22:29;2.00;;;1.20;;
29430;SDS011;16404;49.902;10.074;2023-07-20T14:25:14;2.97;;;1.05;;
29430;SDS011;16404;49.902;10.074;2023-07-20T14:27:59;2.72;;;1.20;;
29430;SDS011;16404;49.902;10.074;2023-07-20T14:30:43;2.60;;;1.10;;
29430;SDS011;16404;49.902;10.074;2023-07-20T14:33:27;3.03;;;1.02;;
29430;SDS011;16404;49.902;10.074;2023-07-20T14:36:12;2.70;;;1.05;;
29430;SDS011;16404;49.902;10.074;2023-07-20T14:38:57;1.73;;;1.30;;
29430;SDS011;16404;49.902;10.074;2023-07-20T14:41:41;2.10;;;1.25;;
29430;SDS011;16404;49.902;10.074;2023-07-20T14:44:26;1.73;;;1.10;;
29430;SDS011;16404;49.902;10.074;2023-07-20T14:47:10;4.05;;;1.30;;
29430;SDS011;16404;49.902;10.074;2023-07-20T14:49:55;3.15;;;1.23;;
29430;SDS011;16404;49.902;10.074;2023-07-20T14:52:39;2.13;;;1.20;;
29430;SDS011;16404;49.902;10.074;2023-07-20T14:55:25;1.20;;;1.08;;
29430;SDS011;16404;49.902;10.074;2023-07-20T14:58:10;1.90;;;1.10;;
29430;SDS011;16404;49.902;10.074;2023-07-20T15:00:55;1.70;;;1.27;;
29430;SDS011;16404;49.902;10.074;2023-07-20T15:03:40;3.80;;;1.25;;
29430;SDS011;16404;49.902;10.074;2023-07-20T15:06:24;1.52;;;1.10;;
29430;SDS011;16404;49.902;10.074;2023-07-20T15:09:09;1.90;;;1.20;;
29430;SDS011;16404;49.902;10.074;2023-07-20T15:11:54;1.73;;;1.25;;
29430;SDS011;16404;49.902;10.074;2023-07-20T15:14:39;2.45;;;1.50;;
29430;SDS011;16404;49.902;10.074;2023-07-20T15:17:25;1.90;;;1.17;;
29430;SDS011;16404;49.902;10.074;2023-07-20T15:20:11;2.28;;;1.20;;
29430;SDS011;16404;49.902;10.074;2023-07-20T15:22:56;2.90;;;1.50;;
29430;SDS011;16404;49.902;10.074;2023-07-20T15:25:41;2.47;;;1.38;;
29430;SDS011;16404;49.902;10.074;2023-07-20T15:28:25;1.75;;;1.23;;
29430;SDS011;16404;49.902;10.074;2023-07-20T15:31:10;6.22;;;1.33;;
29430;SDS011;16404;49.902;10.074;2023-07-20T15:33:55;2.53;;;1.30;;
29430;SDS011;16404;49.902;10.074;2023-07-20T15:36:40;1.40;;;1.30;;
29430;SDS011;16404;49.902;10.074;2023-07-20T15:39:24;5.65;;;1.60;;
29430;SDS011;16404;49.902;10.074;2023-07-20T15:42:10;3.15;;;1.40;;
29430;SDS011;16404;49.902;10.074;2023-07-20T15:44:54;2.00;;;1.35;;
29430;SDS011;16404;49.902;10.074;2023-07-20T15:47:39;2.65;;;1.60;;
29430;SDS011;16404;49.902;10.074;2023-07-20T15:50:24;1.98;;;1.45;;
29430;SDS011;16404;49.902;10.074;2023-07-20T15:53:08;1.58;;;1.20;;
29430;SDS011;16404;49.902;10.074;2023-07-20T15:55:53;2.00;;;1.55;;
29430;SDS011;16404;49.902;10.074;2023-07-20T15:58:40;2.33;;;1.40;;
29430;SDS011;16404;49.902;10.074;2023-07-20T16:01:25;4.55;;;1.33;;
29430;SDS011;16404;49.902;10.074;2023-07-20T16:04:09;2.20;;;1.30;;
29430;SDS011;16404;49.902;10.074;2023-07-20T16:06:55;2.40;;;1.35;;
29430;SDS011;16404;49.902;10.074;2023-07-20T16:09:39;3.65;;;1.40;;
29430;SDS011;16404;49.902;10.074;2023-07-20T16:12:24;3.50;;;1.50;;
29430;SDS011;16404;49.902;10.074;2023-07-20T16:15:11;2.47;;;1.20;;
29430;SDS011;16404;49.902;10.074;2023-07-20T16:17:57;4.22;;;1.63;;
29430;SDS011;16404;49.902;10.074;2023-07-20T16:20:42;2.50;;;1.40;;
29430;SDS011;16404;49.902;10.074;2023-07-20T16:26:11;2.55;;;1.40;;
29430;SDS011;16404;49.902;10.074;2023-07-20T16:28:55;1.92;;;1.50;;
29430;SDS011;16404;49.902;10.074;2023-07-20T16:31:42;1.85;;;1.30;;
29430;SDS011;16404;49.902;10.074;2023-07-20T16:34:28;2.83;;;1.30;;
29430;SDS011;16404;49.902;10.074;2023-07-20T16:37:12;1.55;;;1.23;;
29430;SDS011;16404;49.902;10.074;2023-07-20T16:39:57;3.65;;;1.35;;
29430;SDS011;16404;49.902;10.074;2023-07-20T16:42:42;2.50;;;1.30;;
29430;SDS011;16404;49.902;10.074;2023-07-20T16:45:26;2.83;;;1.20;;
29430;SDS011;16404;49.902;10.074;2023-07-20T16:48:11;2.35;;;1.48;;
29430;SDS011;16404;49.902;10.074;2023-07-20T16:50:56;4.97;;;1.95;;
29430;SDS011;16404;49.902;10.074;2023-07-20T16:53:40;3.92;;;1.40;;
29430;SDS011;16404;49.902;10.074;2023-07-20T16:56:25;3.78;;;1.42;;